sensor_id;sensor_type;location;lat;lon;timestamp;pressure;altitude;pressure_sealevel;temperature;humidity
59391;BME280;53405;57.012;40.984;2023-02-20T00:00:42;98507.75;;;-10.61;82.07
59391;BME280;53405;57.012;40.984;2023-02-20T00:03:30;98498.28;;;-10.75;81.41
59391;BME280;53405;57.012;40.984;2023-02-20T00:06:18;98497.78;;;-10.82;81.55
59391;BME280;53405;57.012;40.984;2023-02-20T00:09:05;98501.19;;;-10.81;81.57
59391;BME280;53405;57.012;40.984;2023-02-20T00:11:53;98499.28;;;-10.78;81.59
59391;BME280;53405;57.012;40.984;2023-02-20T00:14:40;98496.34;;;-10.86;81.05
59391;BME280;53405;57.012;40.984;2023-02-20T00:17:28;98511.50;;;-10.84;81.54
59391;BME280;53405;57.012;40.984;2023-02-20T00:20:23;98476.19;;;-11.06;82.08
59391;BME280;53405;57.012;40.984;2023-02-20T00:23:11;98504.69;;;-10.84;81.59
59391;BME280;53405;57.012;40.984;2023-02-20T00:25:58;98502.97;;;-10.83;82.16
59391;BME280;53405;57.012;40.984;2023-02-20T00:28:46;98506.44;;;-10.84;81.88
59391;BME280;53405;57.012;40.984;2023-02-20T00:31:33;98498.72;;;-10.83;82.10
59391;BME280;53405;57.012;40.984;2023-02-20T00:34:25;98492.22;;;-10.88;82.09
59391;BME280;53405;57.012;40.984;2023-02-20T00:37:13;98507.31;;;-10.85;81.94
59391;BME280;53405;57.012;40.984;2023-02-20T00:40:01;98505.91;;;-10.91;81.94
59391;BME280;53405;57.012;40.984;2023-02-20T00:42:49;98505.91;;;-10.91;82.10
59391;BME280;53405;57.012;40.984;2023-02-20T00:45:37;98499.50;;;-10.98;82.20
59391;BME280;53405;57.012;40.984;2023-02-20T00:48:24;98498.50;;;-10.96;82.12
59391;BME280;53405;57.012;40.984;2023-02-20T00:51:32;98493.00;;;-11.04;82.52
59391;BME280;53405;57.012;40.984;2023-02-20T00:54:22;98478.06;;;-11.10;82.74
59391;BME280;53405;57.012;40.984;2023-02-20T00:57:10;98489.72;;;-11.06;82.28
59391;BME280;53405;57.012;40.984;2023-02-20T00:59:57;98492.34;;;-11.07;82.51
59391;BME280;53405;57.012;40.984;2023-02-20T01:02:45;98489.22;;;-11.13;82.45
59391;BME280;53405;57.012;40.984;2023-02-20T01:05:33;98498.78;;;-11.18;82.01
59391;BME280;53405;57.012;40.984;2023-02-20T01:08:21;98497.31;;;-11.22;82.10
59391;BME280;53405;57.012;40.984;2023-02-20T01:11:08;98493.50;;;-11.31;82.33
59391;BME280;53405;57.012;40.984;2023-02-20T01:13:56;98491.09;;;-11.34;82.61
59391;BME280;53405;57.012;40.984;2023-02-20T01:16:48;98494.63;;;-11.36;82.29
59391;BME280;53405;57.012;40.984;2023-02-20T01:19:37;98496.66;;;-11.43;82.24
59391;BME280;53405;57.012;40.984;2023-02-20T01:22:24;98495.97;;;-11.47;82.47
59391;BME280;53405;57.012;40.984;2023-02-20T01:25:12;98495.31;;;-11.50;82.34
59391;BME280;53405;57.012;40.984;2023-02-20T01:28:00;98499.59;;;-11.51;82.90
59391;BME280;53405;57.012;40.984;2023-02-20T01:30:48;98502.88;;;-11.49;82.58
59391;BME280;53405;57.012;40.984;2023-02-20T01:33:39;98493.50;;;-11.48;82.45
59391;BME280;53405;57.012;40.984;2023-02-20T01:36:27;98494.19;;;-11.45;82.57
59391;BME280;53405;57.012;40.984;2023-02-20T01:39:19;98488.44;;;-11.48;82.91
59391;BME280;53405;57.012;40.984;2023-02-20T01:42:11;98490.75;;;-11.43;82.42
59391;BME280;53405;57.012;40.984;2023-02-20T01:48:21;98498.91;;;-11.54;82.40
59391;BME280;53405;57.012;40.984;2023-02-20T01:51:09;98493.88;;;-11.56;82.67
59391;BME280;53405;57.012;40.984;2023-02-20T01:53:57;98499.13;;;-11.59;82.35
59391;BME280;53405;57.012;40.984;2023-02-20T01:56:45;98480.91;;;-11.67;82.24
59391;BME280;53405;57.012;40.984;2023-02-20T01:59:36;98499.19;;;-11.60;82.07
59391;BME280;53405;57.012;40.984;2023-02-20T02:02:27;98496.88;;;-11.65;81.85
59391;BME280;53405;57.012;40.984;2023-02-20T02:05:18;98461.47;;;-11.86;81.83
59391;BME280;53405;57.012;40.984;2023-02-20T02:08:13;98485.59;;;-11.77;81.95
59391;BME280;53405;57.012;40.984;2023-02-20T02:11:07;98464.34;;;-11.92;81.77
59391;BME280;53405;57.012;40.984;2023-02-20T02:13:58;98495.56;;;-11.72;81.58
59391;BME280;53405;57.012;40.984;2023-02-20T02:41:59;98501.91;;;-11.98;81.20
59391;BME280;53405;57.012;40.984;2023-02-20T02:45:02;98502.81;;;-12.00;81.08
59391;BME280;53405;57.012;40.984;2023-02-20T02:47:55;98493.75;;;-12.05;81.46
59391;BME280;53405;57.012;40.984;2023-02-20T02:50:43;98499.03;;;-12.10;81.03
59391;BME280;53405;57.012;40.984;2023-02-20T02:53:31;98501.13;;;-12.18;80.68
59391;BME280;53405;57.012;40.984;2023-02-20T02:56:16;98501.28;;;-12.21;80.63
59391;BME280;53405;57.012;40.984;2023-02-20T02:59:09;98509.22;;;-12.29;81.27
59391;BME280;53405;57.012;40.984;2023-02-20T03:02:02;98504.44;;;-12.35;80.72
59391;BME280;53405;57.012;40.984;2023-02-20T03:04:51;98511.16;;;-12.34;80.88
59391;BME280;53405;57.012;40.984;2023-02-20T03:07:40;98483.28;;;-12.53;81.29
59391;BME280;53405;57.012;40.984;2023-02-20T03:10:27;98495.63;;;-12.45;81.14
59391;BME280;53405;57.012;40.984;2023-02-20T03:13:17;98516.38;;;-12.37;81.23
59391;BME280;53405;57.012;40.984;2023-02-20T03:16:05;98516.25;;;-12.34;80.72
59391;BME280;53405;57.012;40.984;2023-02-20T03:18:54;98515.75;;;-12.42;80.19
59391;BME280;53405;57.012;40.984;2023-02-20T03:21:45;98508.97;;;-12.42;80.79
59391;BME280;53405;57.012;40.984;2023-02-20T03:24:32;98510.75;;;-12.44;80.59
59391;BME280;53405;57.012;40.984;2023-02-20T03:30:41;98492.78;;;-12.58;80.54
59391;BME280;53405;57.012;40.984;2023-02-20T03:33:35;98504.47;;;-12.54;81.23
59391;BME280;53405;57.012;40.984;2023-02-20T03:36:46;98508.66;;;-12.53;80.70
59391;BME280;53405;57.012;40.984;2023-02-20T03:39:55;98508.06;;;-12.60;80.48
59391;BME280;53405;57.012;40.984;2023-02-20T03:43:08;98499.66;;;-12.60;80.44
59391;BME280;53405;57.012;40.984;2023-02-20T03:46:21;98506.53;;;-12.62;80.35
59391;BME280;53405;57.012;40.984;2023-02-20T03:49:16;98503.22;;;-12.64;81.05
59391;BME280;53405;57.012;40.984;2023-02-20T03:52:05;98506.44;;;-12.61;80.22
59391;BME280;53405;57.012;40.984;2023-02-20T03:54:55;98508.34;;;-12.66;80.34
59391;BME280;53405;57.012;40.984;2023-02-20T03:57:44;98505.69;;;-12.63;80.88
59391;BME280;53405;57.012;40.984;2023-02-20T04:00:38;98511.53;;;-12.61;80.28
59391;BME280;53405;57.012;40.984;2023-02-20T04:03:29;98509.06;;;-12.62;80.09
59391;BME280;53405;57.012;40.984;2023-02-20T04:06:18;98503.34;;;-12.67;80.04
59391;BME280;53405;57.012;40.984;2023-02-20T04:13:29;98517.81;;;-12.69;80.04
59391;BME280;53405;57.012;40.984;2023-02-20T04:16:17;98493.00;;;-12.82;79.91
59391;BME280;53405;57.012;40.984;2023-02-20T04:19:04;98513.72;;;-12.72;80.12
59391;BME280;53405;57.012;40.984;2023-02-20T04:22:00;98477.56;;;-12.96;79.96
59391;BME280;53405;57.012;40.984;2023-02-20T04:28:40;98513.72;;;-12.72;80.24
59391;BME280;53405;57.012;40.984;2023-02-20T04:31:35;98518.66;;;-12.69;80.25
59391;BME280;53405;57.012;40.984;2023-02-20T04:34:30;98514.41;;;-12.68;80.28
59391;BME280;53405;57.012;40.984;2023-02-20T04:37:30;98511.19;;;-12.72;79.82
59391;BME280;53405;57.012;40.984;2023-02-20T04:40:40;98475.66;;;-12.91;79.87
59391;BME280;53405;57.012;40.984;2023-02-20T04:44:05;98510.41;;;-12.74;79.79
59391;BME280;53405;57.012;40.984;2023-02-20T04:47:27;98489.44;;;-12.97;79.76
59391;BME280;53405;57.012;40.984;2023-02-20T04:50:29;98502.41;;;-12.84;80.19
59391;BME280;53405;57.012;40.984;2023-02-20T04:53:30;98503.91;;;-12.80;80.09
59391;BME280;53405;57.012;40.984;2023-02-20T04:56:24;98502.25;;;-12.81;79.99
59391;BME280;53405;57.012;40.984;2023-02-20T04:59:23;98498.97;;;-12.83;79.54
59391;BME280;53405;57.012;40.984;2023-02-20T05:02:53;98500.59;;;-12.82;79.90
59391;BME280;53405;57.012;40.984;2023-02-20T05:06:16;98506.38;;;-12.78;79.94
59391;BME280;53405;57.012;40.984;2023-02-20T05:09:25;98498.13;;;-12.83;79.66
59391;BME280;53405;57.012;40.984;2023-02-20T05:12:13;98498.00;;;-12.80;79.19
59391;BME280;53405;57.012;40.984;2023-02-20T05:18:49;98429.53;;;-13.18;79.27
59391;BME280;53405;57.012;40.984;2023-02-20T05:22:05;98506.53;;;-12.81;79.34
59391;BME280;53405;57.012;40.984;2023-02-20T05:25:11;98481.63;;;-12.92;78.78
59391;BME280;53405;57.012;40.984;2023-02-20T05:28:34;98439.69;;;-13.18;78.79
59391;BME280;53405;57.012;40.984;2023-02-20T05:32:11;98492.19;;;-12.82;78.74
59391;BME280;53405;57.012;40.984;2023-02-20T05:35:08;98483.13;;;-12.88;79.12
59391;BME280;53405;57.012;40.984;2023-02-20T05:37:59;98489.91;;;-12.88;79.28
59391;BME280;53405;57.012;40.984;2023-02-20T05:40:49;98472.56;;;-12.98;78.88
59391;BME280;53405;57.012;40.984;2023-02-20T05:43:36;98491.72;;;-12.91;79.00
59391;BME280;53405;57.012;40.984;2023-02-20T05:46:24;98489.66;;;-12.82;79.28
59391;BME280;53405;57.012;40.984;2023-02-20T05:49:16;98491.44;;;-12.84;79.04
59391;BME280;53405;57.012;40.984;2023-02-20T05:52:07;98479.72;;;-12.87;78.53
59391;BME280;53405;57.012;40.984;2023-02-20T05:54:59;98495.41;;;-12.79;78.33
59391;BME280;53405;57.012;40.984;2023-02-20T05:57:46;98487.94;;;-12.82;78.19
59391;BME280;53405;57.012;40.984;2023-02-20T06:00:34;98497.19;;;-12.81;78.30
59391;BME280;53405;57.012;40.984;2023-02-20T06:03:24;98488.91;;;-12.84;78.23
59391;BME280;53405;57.012;40.984;2023-02-20T06:06:12;98483.97;;;-12.87;78.19
59391;BME280;53405;57.012;40.984;2023-02-20T06:09:09;98454.22;;;-13.03;78.01
59391;BME280;53405;57.012;40.984;2023-02-20T06:12:01;98488.00;;;-12.83;77.45
59391;BME280;53405;57.012;40.984;2023-02-20T06:14:50;98499.03;;;-12.84;77.79
59391;BME280;53405;57.012;40.984;2023-02-20T06:17:37;98493.84;;;-12.81;77.60
59391;BME280;53405;57.012;40.984;2023-02-20T06:20:25;98499.84;;;-12.84;77.53
59391;BME280;53405;57.012;40.984;2023-02-20T06:23:17;98493.72;;;-12.78;77.63
59391;BME280;53405;57.012;40.984;2023-02-20T06:26:12;98492.72;;;-12.76;76.84
59391;BME280;53405;57.012;40.984;2023-02-20T06:29:12;98499.53;;;-12.76;77.06
59391;BME280;53405;57.012;40.984;2023-02-20T06:33:03;98482.91;;;-12.83;76.75
59391;BME280;53405;57.012;40.984;2023-02-20T06:36:52;98496.72;;;-12.70;77.11
59391;BME280;53405;57.012;40.984;2023-02-20T06:39:46;98491.78;;;-12.73;76.76
59391;BME280;53405;57.012;40.984;2023-02-20T06:42:35;98481.63;;;-12.73;76.58
59391;BME280;53405;57.012;40.984;2023-02-20T06:45:32;98499.59;;;-12.59;76.21
59391;BME280;53405;57.012;40.984;2023-02-20T06:48:27;98491.03;;;-12.56;75.82
59391;BME280;53405;57.012;40.984;2023-02-20T06:51:21;98504.53;;;-12.56;75.65
59391;BME280;53405;57.012;40.984;2023-02-20T06:54:14;98452.50;;;-12.83;75.26
59391;BME280;53405;57.012;40.984;2023-02-20T06:57:15;98473.22;;;-12.74;75.42
59391;BME280;53405;57.012;40.984;2023-02-20T07:00:05;98495.19;;;-12.55;76.05
59391;BME280;53405;57.012;40.984;2023-02-20T07:02:55;98496.50;;;-12.46;75.61
59391;BME280;53405;57.012;40.984;2023-02-20T07:05:44;98503.13;;;-12.44;75.21
59391;BME280;53405;57.012;40.984;2023-02-20T07:08:31;98463.59;;;-12.67;74.52
59391;BME280;53405;57.012;40.984;2023-02-20T07:11:21;98475.03;;;-12.58;74.84
59391;BME280;53405;57.012;40.984;2023-02-20T07:14:12;98493.91;;;-12.45;74.47
59391;BME280;53405;57.012;40.984;2023-02-20T07:17:02;98509.31;;;-12.49;74.68
59391;BME280;53405;57.012;40.984;2023-02-20T07:19:53;98498.91;;;-12.43;74.81
59391;BME280;53405;57.012;40.984;2023-02-20T07:22:51;98490.31;;;-12.41;75.62
59391;BME280;53405;57.012;40.984;2023-02-20T07:25:40;98494.59;;;-12.24;75.69
59391;BME280;53405;57.012;40.984;2023-02-20T07:28:35;98497.69;;;-12.17;75.53
59391;BME280;53405;57.012;40.984;2023-02-20T07:31:28;98487.38;;;-12.14;74.97
59391;BME280;53405;57.012;40.984;2023-02-20T07:34:15;98497.00;;;-12.21;74.27
59391;BME280;53405;57.012;40.984;2023-02-20T07:37:05;98470.72;;;-12.37;74.14
59391;BME280;53405;57.012;40.984;2023-02-20T07:39:53;98499.41;;;-12.18;74.21
59391;BME280;53405;57.012;40.984;2023-02-20T07:42:40;98474.53;;;-12.28;73.93
59391;BME280;53405;57.012;40.984;2023-02-20T07:45:48;98482.84;;;-12.25;74.05
59391;BME280;53405;57.012;40.984;2023-02-20T07:48:36;98493.31;;;-12.13;73.80
59391;BME280;53405;57.012;40.984;2023-02-20T07:51:23;98494.63;;;-12.06;74.15
59391;BME280;53405;57.012;40.984;2023-02-20T07:54:11;98498.09;;;-11.90;73.66
59391;BME280;53405;57.012;40.984;2023-02-20T07:57:01;98504.03;;;-11.91;72.53
59391;BME280;53405;57.012;40.984;2023-02-20T07:59:48;98499.94;;;-11.93;72.98
59391;BME280;53405;57.012;40.984;2023-02-20T08:02:44;98486.72;;;-12.00;72.95
59391;BME280;53405;57.012;40.984;2023-02-20T08:06:12;98482.00;;;-11.90;72.73
59391;BME280;53405;57.012;40.984;2023-02-20T08:09:04;98504.13;;;-11.57;72.50
59391;BME280;53405;57.012;40.984;2023-02-20T08:12:03;98499.03;;;-11.57;72.75
59391;BME280;53405;57.012;40.984;2023-02-20T08:14:52;98496.50;;;-11.40;72.81
59391;BME280;53405;57.012;40.984;2023-02-20T08:17:42;98474.03;;;-11.14;71.26
59391;BME280;53405;57.012;40.984;2023-02-20T08:20:44;98502.97;;;-10.67;69.50
59391;BME280;53405;57.012;40.984;2023-02-20T08:23:38;98477.13;;;-10.60;68.74
59391;BME280;53405;57.012;40.984;2023-02-20T08:26:25;98477.69;;;-10.70;67.75
59391;BME280;53405;57.012;40.984;2023-02-20T08:29:14;98497.31;;;-10.73;68.66
59391;BME280;53405;57.012;40.984;2023-02-20T08:32:02;98469.72;;;-10.96;68.08
59391;BME280;53405;57.012;40.984;2023-02-20T08:34:56;98496.19;;;-10.67;67.83
59391;BME280;53405;57.012;40.984;2023-02-20T08:37:46;98495.75;;;-10.75;67.26
59391;BME280;53405;57.012;40.984;2023-02-20T08:40:34;98482.34;;;-10.95;67.99
59391;BME280;53405;57.012;40.984;2023-02-20T08:44:16;98410.97;;;-11.57;68.51
59391;BME280;53405;57.012;40.984;2023-02-20T08:47:13;98483.75;;;-11.05;69.08
59391;BME280;53405;57.012;40.984;2023-02-20T08:50:03;98488.19;;;-10.93;68.52
59391;BME280;53405;57.012;40.984;2023-02-20T08:53:01;98480.03;;;-10.99;68.18
59391;BME280;53405;57.012;40.984;2023-02-20T08:55:51;98486.97;;;-10.85;69.16
59391;BME280;53405;57.012;40.984;2023-02-20T08:58:49;98478.44;;;-11.18;68.20
59391;BME280;53405;57.012;40.984;2023-02-20T09:01:44;98480.47;;;-11.24;69.45
59391;BME280;53405;57.012;40.984;2023-02-20T09:04:33;98485.78;;;-11.29;70.06
59391;BME280;53405;57.012;40.984;2023-02-20T09:07:25;98475.94;;;-11.35;69.92
59391;BME280;53405;57.012;40.984;2023-02-20T09:10:18;98485.94;;;-11.32;70.37
59391;BME280;53405;57.012;40.984;2023-02-20T09:13:06;98474.97;;;-11.33;70.08
59391;BME280;53405;57.012;40.984;2023-02-20T09:16:08;98470.03;;;-11.36;70.00
59391;BME280;53405;57.012;40.984;2023-02-20T09:18:59;98473.34;;;-11.18;70.17
59391;BME280;53405;57.012;40.984;2023-02-20T09:22:04;98465.25;;;-11.42;69.87
59391;BME280;53405;57.012;40.984;2023-02-20T09:25:06;98470.97;;;-11.21;70.41
59391;BME280;53405;57.012;40.984;2023-02-20T09:27:59;98448.50;;;-11.29;69.36
59391;BME280;53405;57.012;40.984;2023-02-20T09:30:49;98460.81;;;-11.21;69.35
59391;BME280;53405;57.012;40.984;2023-02-20T09:33:44;98461.63;;;-11.20;69.27
59391;BME280;53405;57.012;40.984;2023-02-20T09:36:39;98465.69;;;-11.34;69.12
59391;BME280;53405;57.012;40.984;2023-02-20T09:39:27;98462.78;;;-11.43;69.30
59391;BME280;53405;57.012;40.984;2023-02-20T09:42:35;98471.63;;;-11.33;69.60
59391;BME280;53405;57.012;40.984;2023-02-20T09:45:33;98445.13;;;-11.29;69.56
59391;BME280;53405;57.012;40.984;2023-02-20T09:48:33;98458.41;;;-11.24;69.24
59391;BME280;53405;57.012;40.984;2023-02-20T09:51:27;98461.63;;;-11.20;69.21
59391;BME280;53405;57.012;40.984;2023-02-20T09:54:51;98461.22;;;-11.29;69.07
59391;BME280;53405;57.012;40.984;2023-02-20T09:57:42;98458.69;;;-11.29;68.94
59391;BME280;53405;57.012;40.984;2023-02-20T10:00:36;98449.25;;;-11.27;69.10
59391;BME280;53405;57.012;40.984;2023-02-20T10:04:24;98453.84;;;-11.17;69.56
59391;BME280;53405;57.012;40.984;2023-02-20T10:07:31;98457.63;;;-11.09;68.96
59391;BME280;53405;57.012;40.984;2023-02-20T10:10:25;98447.47;;;-11.09;69.42
59391;BME280;53405;57.012;40.984;2023-02-20T10:13:49;98451.47;;;-11.20;67.99
59391;BME280;53405;57.012;40.984;2023-02-20T10:16:50;98448.94;;;-11.20;68.61
59391;BME280;53405;57.012;40.984;2023-02-20T10:20:19;98452.69;;;-11.12;68.69
59391;BME280;53405;57.012;40.984;2023-02-20T10:26:36;98447.31;;;-11.05;69.19
59391;BME280;53405;57.012;40.984;2023-02-20T10:29:29;98449.69;;;-10.86;68.90
59391;BME280;53405;57.012;40.984;2023-02-20T10:32:22;98455.72;;;-10.87;67.40
59391;BME280;53405;57.012;40.984;2023-02-20T10:35:23;98425.09;;;-11.02;67.89
59391;BME280;53405;57.012;40.984;2023-02-20T10:38:12;98406.22;;;-11.14;68.00
59391;BME280;53405;57.012;40.984;2023-02-20T10:41:07;98431.81;;;-11.01;68.09
59391;BME280;53405;57.012;40.984;2023-02-20T10:47:28;98425.59;;;-10.95;67.48
59391;BME280;53405;57.012;40.984;2023-02-20T10:50:24;98441.00;;;-10.98;67.32
59391;BME280;53405;57.012;40.984;2023-02-20T10:53:44;98412.50;;;-11.21;67.50
59391;BME280;53405;57.012;40.984;2023-02-20T10:56:40;98433.19;;;-11.11;67.64
59391;BME280;53405;57.012;40.984;2023-02-20T10:59:56;98419.91;;;-11.00;67.67
59391;BME280;53405;57.012;40.984;2023-02-20T11:02:56;98431.75;;;-10.83;67.54
59391;BME280;53405;57.012;40.984;2023-02-20T11:05:53;98422.00;;;-10.59;67.95
59391;BME280;53405;57.012;40.984;2023-02-20T11:08:43;98412.63;;;-10.59;67.53
59391;BME280;53405;57.012;40.984;2023-02-20T11:11:44;98420.25;;;-10.43;66.74
59391;BME280;53405;57.012;40.984;2023-02-20T11:17:28;98417.34;;;-10.37;66.86
59391;BME280;53405;57.012;40.984;2023-02-20T11:26:30;98413.22;;;-9.78;65.32
59391;BME280;53405;57.012;40.984;2023-02-20T11:29:21;98373.00;;;-9.73;65.05
59391;BME280;53405;57.012;40.984;2023-02-20T11:32:16;98419.19;;;-9.20;63.32
59391;BME280;53405;57.012;40.984;2023-02-20T11:44:23;98426.44;;;-9.57;63.19
59391;BME280;53405;57.012;40.984;2023-02-20T11:47:22;98428.09;;;-9.56;63.03
59391;BME280;53405;57.012;40.984;2023-02-20T11:50:18;98403.69;;;-9.60;63.02
59391;BME280;53405;57.012;40.984;2023-02-20T11:53:31;98419.00;;;-9.17;62.70
59391;BME280;53405;57.012;40.984;2023-02-20T11:56:21;98423.47;;;-9.35;61.95
59391;BME280;53405;57.012;40.984;2023-02-20T11:59:40;98419.16;;;-9.49;63.00
59391;BME280;53405;57.012;40.984;2023-02-20T12:02:31;98380.56;;;-9.72;62.92
59391;BME280;53405;57.012;40.984;2023-02-20T12:05:20;98404.88;;;-9.66;63.06
59391;BME280;53405;57.012;40.984;2023-02-20T12:11:25;98396.88;;;-9.60;62.65
59391;BME280;53405;57.012;40.984;2023-02-20T12:14:15;98401.97;;;-9.60;62.74
59391;BME280;53405;57.012;40.984;2023-02-20T12:20:21;98418.00;;;-9.58;63.13
59391;BME280;53405;57.012;40.984;2023-02-20T12:23:24;98411.88;;;-9.55;62.94
59391;BME280;53405;57.012;40.984;2023-02-20T12:26:24;98408.59;;;-9.72;63.06
59391;BME280;53405;57.012;40.984;2023-02-20T12:35:35;98359.97;;;-9.97;63.23
59391;BME280;53405;57.012;40.984;2023-02-20T12:44:56;98405.13;;;-9.85;64.24
59391;BME280;53405;57.012;40.984;2023-02-20T12:48:11;98416.50;;;-9.76;64.33
59391;BME280;53405;57.012;40.984;2023-02-20T12:51:37;98413.59;;;-9.70;64.61
59391;BME280;53405;57.012;40.984;2023-02-20T12:54:54;98409.53;;;-9.58;64.43
59391;BME280;53405;57.012;40.984;2023-02-20T12:58:27;98412.63;;;-9.68;64.94
59391;BME280;53405;57.012;40.984;2023-02-20T13:01:21;98410.78;;;-9.80;65.00
59391;BME280;53405;57.012;40.984;2023-02-20T13:04:29;98413.13;;;-9.91;64.79
59391;BME280;53405;57.012;40.984;2023-02-20T13:07:34;98415.13;;;-10.12;65.50
59391;BME280;53405;57.012;40.984;2023-02-20T13:10:29;98403.50;;;-10.17;66.36
59391;BME280;53405;57.012;40.984;2023-02-20T13:13:18;98419.34;;;-10.11;66.37
59391;BME280;53405;57.012;40.984;2023-02-20T13:16:23;98413.00;;;-10.20;66.57
59391;BME280;53405;57.012;40.984;2023-02-20T13:19:43;98413.63;;;-10.31;66.92
59391;BME280;53405;57.012;40.984;2023-02-20T13:22:40;98425.88;;;-10.38;67.07
59391;BME280;53405;57.012;40.984;2023-02-20T13:25:39;98400.78;;;-10.44;67.88
59391;BME280;53405;57.012;40.984;2023-02-20T13:28:44;98422.00;;;-10.29;67.67
59391;BME280;53405;57.012;40.984;2023-02-20T13:34:39;98416.47;;;-10.36;68.11
59391;BME280;53405;57.012;40.984;2023-02-20T13:46:15;98419.50;;;-10.45;69.46
59391;BME280;53405;57.012;40.984;2023-02-20T13:50:19;98417.03;;;-10.46;69.52
59391;BME280;53405;57.012;40.984;2023-02-20T13:53:13;98417.63;;;-10.57;70.02
59391;BME280;53405;57.012;40.984;2023-02-20T13:59:21;98417.72;;;-10.75;72.08
59391;BME280;53405;57.012;40.984;2023-02-20T14:05:05;98425.50;;;-10.78;73.86
59391;BME280;53405;57.012;40.984;2023-02-20T14:07:53;98428.31;;;-10.82;74.94
59391;BME280;53405;57.012;40.984;2023-02-20T14:10:41;98403.25;;;-11.06;75.83
59391;BME280;53405;57.012;40.984;2023-02-20T14:13:35;98420.59;;;-10.97;76.69
59391;BME280;53405;57.012;40.984;2023-02-20T14:16:32;98426.22;;;-11.07;77.02
59391;BME280;53405;57.012;40.984;2023-02-20T14:19:24;98425.56;;;-11.11;76.91
59391;BME280;53405;57.012;40.984;2023-02-20T14:28:13;98416.50;;;-11.33;76.19
59391;BME280;53405;57.012;40.984;2023-02-20T14:31:21;98433.66;;;-11.36;75.89
59391;BME280;53405;57.012;40.984;2023-02-20T14:40:36;98437.75;;;-11.51;75.30
59391;BME280;53405;57.012;40.984;2023-02-20T14:43:26;98443.84;;;-11.54;75.31
59391;BME280;53405;57.012;40.984;2023-02-20T14:46:21;98439.81;;;-11.58;75.43
59391;BME280;53405;57.012;40.984;2023-02-20T14:49:16;98442.78;;;-11.67;75.50
59391;BME280;53405;57.012;40.984;2023-02-20T14:52:21;98435.47;;;-11.73;75.42
59391;BME280;53405;57.012;40.984;2023-02-20T14:55:21;98435.78;;;-11.79;76.23
59391;BME280;53405;57.012;40.984;2023-02-20T14:58:19;98425.84;;;-11.84;76.07
59391;BME280;53405;57.012;40.984;2023-02-20T15:01:18;98408.94;;;-12.01;76.01
59391;BME280;53405;57.012;40.984;2023-02-20T15:04:14;98399.81;;;-12.05;76.12
59391;BME280;53405;57.012;40.984;2023-02-20T15:07:05;98416.41;;;-11.98;76.11
59391;BME280;53405;57.012;40.984;2023-02-20T15:09:57;98423.19;;;-11.98;76.14
59391;BME280;53405;57.012;40.984;2023-02-20T15:12:46;98417.22;;;-11.97;76.43
59391;BME280;53405;57.012;40.984;2023-02-20T15:15:36;98417.28;;;-11.99;76.30
59391;BME280;53405;57.012;40.984;2023-02-20T15:18:36;98415.19;;;-12.08;76.31
59391;BME280;53405;57.012;40.984;2023-02-20T15:27:18;98422.81;;;-12.08;75.85
59391;BME280;53405;57.012;40.984;2023-02-20T15:30:14;98421.47;;;-12.15;76.29
59391;BME280;53405;57.012;40.984;2023-02-20T15:33:06;98420.78;;;-12.19;76.54
59391;BME280;53405;57.012;40.984;2023-02-20T15:35:57;98413.41;;;-12.24;76.56
59391;BME280;53405;57.012;40.984;2023-02-20T15:38:45;98424.59;;;-12.28;76.30
59391;BME280;53405;57.012;40.984;2023-02-20T15:41:32;98421.28;;;-12.30;76.88
59391;BME280;53405;57.012;40.984;2023-02-20T15:44:20;98419.81;;;-12.34;76.99
59391;BME280;53405;57.012;40.984;2023-02-20T15:47:08;98419.69;;;-12.31;76.56
59391;BME280;53405;57.012;40.984;2023-02-20T15:49:56;98413.09;;;-12.35;77.22
59391;BME280;53405;57.012;40.984;2023-02-20T15:52:44;98410.97;;;-12.44;77.36
59391;BME280;53405;57.012;40.984;2023-02-20T15:55:33;98406.06;;;-12.47;77.56
59391;BME280;53405;57.012;40.984;2023-02-20T15:58:24;98425.19;;;-12.40;77.77
59391;BME280;53405;57.012;40.984;2023-02-20T16:01:16;98398.66;;;-12.52;77.76
59391;BME280;53405;57.012;40.984;2023-02-20T16:04:05;98401.06;;;-12.49;77.89
59391;BME280;53405;57.012;40.984;2023-02-20T16:06:53;98404.66;;;-12.53;78.17
59391;BME280;53405;57.012;40.984;2023-02-20T16:09:41;98401.19;;;-12.52;78.11
59391;BME280;53405;57.012;40.984;2023-02-20T16:12:29;98377.31;;;-12.65;78.18
59391;BME280;53405;57.012;40.984;2023-02-20T16:15:19;98403.19;;;-12.59;77.83
59391;BME280;53405;57.012;40.984;2023-02-20T16:18:11;98400.81;;;-12.62;78.15
59391;BME280;53405;57.012;40.984;2023-02-20T16:20:58;98388.56;;;-12.71;78.21
59391;BME280;53405;57.012;40.984;2023-02-20T16:23:46;98388.63;;;-12.73;78.20
59391;BME280;53405;57.012;40.984;2023-02-20T16:26:39;98386.09;;;-12.73;78.34
59391;BME280;53405;57.012;40.984;2023-02-20T16:29:32;98383.69;;;-12.76;78.63
59391;BME280;53405;57.012;40.984;2023-02-20T16:32:23;98378.75;;;-12.79;78.72
59391;BME280;53405;57.012;40.984;2023-02-20T16:35:12;98375.56;;;-12.82;78.63
59391;BME280;53405;57.012;40.984;2023-02-20T16:38:00;98379.66;;;-12.80;78.73
59391;BME280;53405;57.012;40.984;2023-02-20T16:40:47;98379.19;;;-12.88;78.50
59391;BME280;53405;57.012;40.984;2023-02-20T16:43:41;98370.00;;;-12.91;78.73
59391;BME280;53405;57.012;40.984;2023-02-20T16:46:29;98363.63;;;-12.99;78.71
59391;BME280;53405;57.012;40.984;2023-02-20T16:49:24;98377.97;;;-12.98;78.88
59391;BME280;53405;57.012;40.984;2023-02-20T16:52:36;98379.81;;;-13.02;79.10
59391;BME280;53405;57.012;40.984;2023-02-20T16:55:31;98369.06;;;-13.07;78.88
59391;BME280;53405;57.012;40.984;2023-02-20T16:58:19;98380.97;;;-13.09;79.26
59391;BME280;53405;57.012;40.984;2023-02-20T17:01:06;98380.38;;;-13.14;79.09
59391;BME280;53405;57.012;40.984;2023-02-20T17:03:54;98380.25;;;-13.11;79.15
59391;BME280;53405;57.012;40.984;2023-02-20T17:06:42;98375.91;;;-13.09;79.29
59391;BME280;53405;57.012;40.984;2023-02-20T17:09:30;98369.19;;;-13.10;79.18